Latest Weather Observations for Rockhampton

IDQ60801

Issued at 9:32 am EST Friday 26 August 2016 (issued every 30 minutes, with the page automatically refreshed every 10 minutes)

About weather observations | Map of weather stations | Latest weather observations for QLD | Other Formats
Station Details ID: 039083 Name: ROCKHAMPTON AERO Lat: -23.38 Lon: 150.48 Height: 10.4 m
Data from the previous 72 hours. | See also: Recent months at Rockhampton
Date/Time
EST
Temp
°C
App
Temp
°C
Dew
Point
°C
Rel
Hum
%
Delta-T
°C
Wind Press
QNH
hPa
Press
MSL
hPa
Rain since
9am
mm
Dir  Spd
km/h
Gust
km/h
Spd
kts
Gust
kts
26/09:00am 17.0 15.0 6.9 51 5.0 SSE 7 13 4 7 1018.0 1018.0 0.0
26/08:30am 15.8 13.8 8.5 62 3.7 SSE 9 15 5 8 1017.9 1017.9 0.0
26/08:00am 15.5 12.8 7.4 58 4.0 SE 11 17 6 9 1017.7 1017.7 0.0
26/07:30am 14.3 12.0 7.6 64 3.3 ESE 9 13 5 7 1017.7 1017.7 0.0
26/07:00am 12.2 10.7 8.3 77 1.9 SE 6 7 3 4 1017.4 1017.4 0.0
26/06:30am 11.7 9.5 8.0 78 1.8 SSW 9 11 5 6 1017.2 1017.2 0.0
26/06:00am 12.0 9.8 7.7 75 2.1 SSW 9 11 5 6 1016.5 1016.5 0.0
26/05:30am 12.3 10.7 8.0 75 2.1 SSW 6 7 3 4 1016.4 1016.4 0.0
26/05:00am 12.9 11.1 8.0 72 2.4 SW 7 9 4 5 1015.9 1015.9 0.0
26/04:30am 13.4 11.7 8.2 71 2.6 SSW 7 9 4 5 1015.8 1015.8 0.0
26/04:00am 14.1 12.4 8.3 68 2.9 S 7 9 4 5 1015.4 1015.4 0.0
26/03:30am 14.6 12.3 7.3 61 3.6 SSE 9 13 5 7 1014.9 1014.9 0.0
26/03:00am 13.9 12.0 9.0 72 2.5 SSW 9 11 5 6 1015.1 1015.1 0.0
26/02:30am 14.0 12.9 10.1 77 2.0 S 6 7 3 4 1015.3 1015.3 0.0
26/02:00am 13.7 13.1 9.0 73 2.4 SSW 2 7 1 4 1015.4 1015.4 0.0
26/01:30am 13.9 12.6 10.0 77 2.0 SSW 7 9 4 5 1015.3 1015.3 0.0
26/01:00am 14.4 13.6 9.5 72 2.5 SSW 4 9 2 5 1015.3 1015.3 0.0
26/12:30am 14.7 14.9 10.5 76 2.2 CALM 0 0 0 0 1015.5 1015.5 0.0
26/12:00am 15.1 15.3 10.5 74 2.4 CALM 0 0 0 0 1015.7 1015.7 0.0
 
Date/Time
EST
Temp
°C
App
Temp
°C
Dew
Point
°C
Rel
Hum
%
Delta-T
°C
Wind Press
QNH
hPa
Press
MSL
hPa
Rain since
9am
mm
Dir  Spd
km/h
Gust
km/h
Spd
kts
Gust
kts
25/11:30pm 16.2 16.2 9.9 66 3.3 CALM 0 0 0 0 1015.8 1015.8 0.0
25/11:00pm 16.6 16.2 9.7 63 3.6 SSE 2 7 1 4 1016.0 1016.0 0.0
25/10:30pm 17.2 17.3 10.0 62 3.8 CALM 0 0 0 0 1016.0 1016.0 0.0
25/10:00pm 17.2 16.6 10.4 64 3.6 SSE 4 6 2 3 1015.7 1015.7 0.0
25/09:30pm 17.9 16.3 8.8 55 4.7 SSE 7 11 4 6 1015.5 1015.5 0.0
25/09:00pm 17.9 16.3 10.2 60 4.1 SSE 9 11 5 6 1015.3 1015.3 0.0
25/08:30pm 18.1 16.6 10.7 62 4.0 S 9 11 5 6 1015.0 1015.0 0.0
25/08:00pm 17.8 16.7 10.7 63 3.8 SSE 7 9 4 5 1014.9 1014.9 0.0
25/07:30pm 18.4 17.6 11.0 62 4.0 SSE 6 7 3 4 1014.6 1014.6 0.0
25/07:00pm 19.1 17.8 11.2 60 4.3 SSE 9 9 5 5 1014.2 1014.2 0.0
25/06:30pm 18.9 19.5 11.8 63 3.9 CALM 0 0 0 0 1013.8 1013.8 0.0
25/06:00pm 20.4 19.6 10.9 54 5.2 SSW 6 7 3 4 1013.4 1013.4 0.0
25/05:30pm 21.1 19.6 10.7 51 5.7 SW 9 11 5 6 1013.1 1013.1 0.0
25/05:00pm 21.5 19.1 10.1 48 6.2 SW 13 17 7 9 1012.9 1012.9 0.0
25/04:30pm 21.9 20.2 9.9 46 6.5 WSW 9 17 5 9 1012.6 1012.6 0.0
25/04:00pm 21.9 19.1 10.1 47 6.4 SW 15 20 8 11 1012.4 1012.4 0.0
25/03:30pm 22.4 19.6 10.1 45 6.7 WSW 15 17 8 9 1011.8 1011.8 0.0
25/03:00pm 22.2 21.3 10.8 48 6.3 SW 6 13 3 7 1011.5 1011.5 0.0
25/02:30pm 22.0 19.9 9.8 45 6.6 SW 11 19 6 10 1012.1 1012.1 0.0
25/02:00pm 22.1 18.5 9.9 46 6.6 SW 19 24 10 13 1012.2 1012.2 0.0
25/01:30pm 21.7 18.8 9.6 46 6.5 SSW 15 22 8 12 1012.1 1012.1 0.0
25/01:00pm 21.4 18.8 9.5 46 6.4 SSW 13 26 7 14 1012.4 1012.4 0.0
25/12:30pm 20.8 17.9 9.6 48 6.0 SSW 15 20 8 11 1012.8 1012.8 0.0
25/12:00pm 20.8 17.8 10.7 52 5.5 SSW 17 24 9 13 1013.2 1013.2 0.0
25/11:30am 19.2 18.1 11.8 62 4.1 SSE 9 13 5 7 1013.7 1013.7 0.0
25/11:00am 18.9 16.9 11.6 62 4.0 SSE 13 19 7 10 1014.1 1014.1 0.0
25/10:30am 19.4 17.6 12.2 63 4.0 SSE 13 20 7 11 1014.3 1014.3 0.0
25/10:00am 18.7 18.2 13.8 73 2.8 SE 9 15 5 8 1014.7 1014.7 0.0
25/09:30am 18.3 17.9 14.1 76 2.4 S 9 15 5 8 1014.6 1014.6 0.0
25/09:00am 17.4 16.3 14.3 82 1.8 SSW 13 17 7 9 1014.5 1014.5 6.6
25/08:30am 17.0 15.9 14.2 83 1.6 SSW 13 15 7 8 1014.1 1014.1 6.6
25/08:00am 15.9 14.9 14.7 93 0.7 SW 13 17 7 9 1014.0 1014.0 6.6
25/07:34am 17.4 17.6 16.7 96 0.4 SSW 11 15 6 8 1013.3 1013.3 6.6
25/07:30am 17.3 18.0 17.0 98 0.2 WSW 9 15 5 8 1013.5 1013.5 6.6
25/07:00am 17.0 17.5 16.5 97 0.3 NNE 9 11 5 6 1013.1 1013.1 6.6
25/06:30am 16.9 17.0 16.6 98 0.2 N 11 15 6 8 1012.8 1012.8 6.6
25/06:00am 16.9 19.1 16.4 97 0.3 CALM 0 0 0 0 1012.1 1012.1 6.6
25/05:54am 16.9 19.1 16.4 97 0.3 CALM 0 6 0 3 1012.0 1012.0 6.6
25/05:38am 16.9 17.7 16.4 97 0.3 N 7 9 4 5 1012.3 1012.3 6.6
25/05:30am 17.0 18.4 16.5 97 0.3 WNW 4 9 2 5 1012.5 1012.5 6.6
25/05:00am 16.9 17.7 16.4 97 0.3 W 7 11 4 6 1011.0 1011.0 6.6
25/04:30am 16.9 17.0 16.4 97 0.3 NNW 11 13 6 7 1011.2 1011.2 6.6
25/04:00am 16.8 18.2 16.3 97 0.3 NE 4 9 2 5 1010.8 1010.8 6.6
25/03:30am 16.9 16.6 16.4 97 0.3 N 13 17 7 9 1011.0 1011.0 6.4
25/03:00am 16.9 17.0 16.4 97 0.3 NNW 11 13 6 7 1011.2 1011.2 6.4
25/02:30am 16.9 17.3 16.4 97 0.3 N 9 15 5 8 1011.4 1011.4 6.2
25/02:00am 17.1 17.9 16.4 96 0.4 NW 7 11 4 6 1012.5 1012.5 5.8
25/01:30am 17.2 16.9 16.4 95 0.5 NW 13 17 7 9 1012.7 1012.7 5.4
25/01:00am 17.2 16.5 16.4 95 0.5 NNW 15 20 8 11 1012.3 1012.3 5.2
25/12:30am 17.1 16.4 16.4 96 0.4 N 15 20 8 11 1012.3 1012.3 5.2
25/12:00am 17.1 17.2 16.4 96 0.4 N 11 19 6 10 1012.6 1012.6 5.0
 
Date/Time
EST
Temp
°C
App
Temp
°C
Dew
Point
°C
Rel
Hum
%
Delta-T
°C
Wind Press
QNH
hPa
Press
MSL
hPa
Rain since
9am
mm
Dir  Spd
km/h
Gust
km/h
Spd
kts
Gust
kts
24/11:30pm 17.1 16.9 16.6 97 0.3 N 13 20 7 11 1012.7 1012.7 4.8
24/11:00pm 17.4 17.2 16.6 95 0.5 N 13 19 7 10 1012.9 1012.9 4.0
24/10:49pm 17.4 17.2 16.7 96 0.4 N 13 17 7 9 1013.0 1013.0 3.8
24/10:30pm 17.6 18.1 16.6 94 0.6 NNW 9 13 5 7 1013.1 1013.1 3.4
24/10:08pm 17.8 16.8 16.6 93 0.7 N 17 22 9 12 1013.1 1013.1 1.4
24/10:00pm 18.1 18.4 16.9 93 0.7 WNW 11 20 6 11 1013.1 1013.1 1.0
24/09:30pm 18.6 20.8 16.6 88 1.2 CALM 0 0 0 0 1011.5 1011.5 0.4
24/09:00pm 18.5 19.4 16.2 86 1.4 NW 6 7 3 4 1011.1 1011.1 0.4
24/08:30pm 18.5 18.9 16.2 86 1.4 NNE 9 11 5 6 1011.2 1011.2 0.4
24/08:00pm 19.4 20.1 15.5 78 2.3 WNW 6 9 3 5 1011.4 1011.4 0.4
24/07:30pm 19.1 19.7 15.7 80 2.0 NNW 7 9 4 5 1011.4 1011.4 0.4
24/07:00pm 19.3 19.4 15.6 79 2.2 NW 9 11 5 6 1011.0 1011.0 0.4
24/06:30pm 19.5 19.5 15.3 76 2.5 N 9 9 5 5 1010.5 1010.5 0.4
24/06:00pm 20.1 20.1 15.2 73 2.9 WNW 9 11 5 6 1010.4 1010.4 0.2
24/05:30pm 20.7 19.9 14.0 65 3.9 WNW 11 13 6 7 1010.1 1010.1 0.2
24/05:00pm 21.2 19.9 13.6 62 4.4 SW 13 19 7 10 1009.7 1009.7 0.2
24/04:30pm 21.6 18.9 13.0 58 4.9 SW 19 30 10 16 1009.8 1009.8 0.2
24/04:00pm 21.7 18.3 13.6 60 4.7 SW 24 33 13 18 1010.0 1010.0 0.2
24/03:30pm 21.4 17.3 14.8 66 3.9 SW 30 39 16 21 1009.5 1009.5 0.2
24/03:06pm 21.7 16.8 15.3 67 3.8 SW 35 54 19 29 1009.5 1009.5 0.2
24/03:00pm 22.1 18.1 16.2 69 3.6 SW 32 43 17 23 1009.6 1009.6 0.2
24/02:30pm 23.6 18.8 14.1 55 5.6 SW 32 39 17 21 1009.0 1009.0 0.2
24/02:00pm 22.7 18.7 16.3 67 3.9 SW 32 39 17 21 1009.0 1009.0 0.2
24/01:49pm 21.6 17.0 17.9 79 2.3 SW 39 48 21 26 1009.1 1009.1 0.2
24/01:30pm 23.7 21.5 18.6 73 3.2 WSW 28 43 15 23 1009.1 1009.1 0.2
24/01:00pm 25.7 24.5 17.6 61 5.1 WSW 20 28 11 15 1008.8 1008.8 0.0
24/12:30pm 26.0 24.7 16.8 57 5.7 WNW 19 24 10 13 1009.0 1009.0 0.0
24/12:00pm 26.5 25.1 16.9 55 6.0 W 20 28 11 15 1009.3 1009.3 0.0
24/11:30am 26.8 26.5 17.4 56 5.9 NW 15 20 8 11 1009.7 1009.7 0.0
24/11:00am 26.2 25.8 18.0 60 5.2 WNW 17 20 9 11 1010.4 1010.4 0.0
24/10:30am 25.8 25.0 17.9 61 5.0 NW 19 24 10 13 1010.8 1010.8 0.0
24/10:00am 26.3 25.7 18.8 63 4.8 NW 20 32 11 17 1011.2 1011.2 0.0
24/09:30am 24.1 22.6 18.6 71 3.5 NW 24 32 13 17 1011.3 1011.3 0.0
24/09:00am 23.7 23.7 19.7 78 2.6 NNW 19 28 10 15 1011.2 1011.2 2.4
24/08:36am 22.2 22.5 19.7 86 1.6 NNW 17 20 9 11 1011.2 1011.2 2.4
24/08:30am 22.0 22.3 19.7 87 1.5 NNW 17 22 9 12 1011.2 1011.2 2.4
24/08:00am 21.2 23.0 19.5 90 1.1 NNW 9 15 5 8 1010.9 1010.9 2.4
24/07:30am 19.8 21.5 19.3 97 0.3 N 9 13 5 7 1010.6 1010.6 2.4
24/07:15am 19.0 19.9 18.5 97 0.3 NNE 11 13 6 7 1010.4 1010.4 2.4
24/07:00am 18.4 20.9 18.2 99 0.1 SSW 2 7 1 4 1010.2 1010.2 2.4
24/06:37am 18.3 21.2 18.1 99 0.1 CALM 0 0 0 0 1010.0 1010.0 2.4
24/06:30am 18.2 21.0 18.0 99 0.1 CALM 0 0 0 0 1010.0 1010.0 2.4
24/06:07am 17.7 20.2 17.2 97 0.3 CALM 0 0 0 0 1009.7 1009.7 2.4
24/06:00am 17.5 20.0 17.2 98 0.2 CALM 0 0 0 0 1009.5 1009.5 2.2
24/05:59am 17.5 20.0 17.2 98 0.2 CALM 0 0 0 0 1009.5 1009.5 2.2
24/05:57am 17.5 20.0 17.2 98 0.2 CALM 0 0 0 0 1009.5 1009.5 2.2
24/05:30am 17.2 19.1 16.7 97 0.3 SW 2 7 1 4 1008.9 1008.9 2.2
24/05:18am 16.8 19.0 16.6 99 0.1 CALM 0 0 0 0 1008.8 1008.8 2.2
24/05:00am 17.3 19.3 17.0 98 0.2 SW 2 7 1 4 1008.7 1008.7 2.2
24/04:57am 17.1 18.7 16.8 98 0.2 SW 4 7 2 4 1008.7 1008.7 2.2
24/04:36am 17.5 20.0 17.2 98 0.2 CALM 0 0 0 0 1008.6 1008.6 2.2
24/04:30am 17.5 19.9 17.0 97 0.3 CALM 0 0 0 0 1008.5 1008.5 2.2
24/04:00am 18.1 20.7 17.6 97 0.3 CALM 0 0 0 0 1008.2 1008.2 2.2
24/03:38am 18.7 21.7 18.4 98 0.2 CALM 0 0 0 0 1008.3 1008.3 2.2
24/03:30am 18.5 21.3 18.0 97 0.3 CALM 0 0 0 0 1008.4 1008.4 2.2
24/03:05am 18.7 21.6 18.1 96 0.4 CALM 0 0 0 0 1008.6 1008.6 2.2
24/03:00am 18.8 21.7 18.3 97 0.3 CALM 0 0 0 0 1008.6 1008.6 2.2
24/02:30am 19.1 21.0 18.5 96 0.4 WSW 6 7 3 4 1008.9 1008.9 2.2
24/02:00am 19.2 20.9 18.1 93 0.7 NW 6 9 3 5 1009.3 1009.3 2.2
24/01:30am 20.4 21.8 19.5 95 0.6 NNE 11 15 6 8 1009.4 1009.4 2.2
24/01:00am 20.1 22.2 19.3 95 0.5 N 7 11 4 6 1009.8 1009.8 2.2
24/12:30am 20.2 22.3 19.4 95 0.5 NW 7 9 4 5 1010.2 1010.2 2.2
24/12:00am 20.7 23.1 19.6 93 0.7 N 6 9 3 5 1010.6 1010.6 2.2
 
Date/Time
EST
Temp
°C
App
Temp
°C
Dew
Point
°C
Rel
Hum
%
Delta-T
°C
Wind Press
QNH
hPa
Press
MSL
hPa
Rain since
9am
mm
Dir  Spd
km/h
Gust
km/h
Spd
kts
Gust
kts
23/11:30pm 21.0 22.1 19.7 92 0.8 NNE 13 15 7 8 1010.6 1010.6 2.2
23/11:00pm 21.1 21.5 19.8 92 0.8 NNE 17 20 9 11 1011.0 1011.0 2.2
23/10:30pm 21.3 22.1 19.9 92 0.9 NNE 15 20 8 11 1011.2 1011.2 2.2
23/10:00pm 21.0 22.4 19.6 92 0.9 NNE 11 17 6 9 1011.7 1011.7 2.2
23/09:30pm 21.5 22.6 19.6 89 1.2 NNE 13 17 7 9 1011.9 1011.9 2.2
23/09:00pm 21.9 22.5 19.4 86 1.6 NNE 15 20 8 11 1011.9 1011.9 2.2
23/08:30pm 22.4 23.4 19.4 83 1.9 NE 13 17 7 9 1012.0 1012.0 2.2
23/08:00pm 21.9 23.2 19.4 86 1.6 NE 11 15 6 8 1012.1 1012.1 2.2
23/07:30pm 21.4 23.0 19.2 87 1.4 NE 9 11 5 6 1011.9 1011.9 2.2
23/07:00pm 21.7 23.0 19.3 86 1.5 NNE 11 13 6 7 1011.6 1011.6 2.2
23/06:30pm 22.8 23.4 19.4 81 2.2 NE 15 20 8 11 1011.3 1011.3 2.2
23/06:00pm 23.1 24.0 19.3 79 2.4 NE 13 20 7 11 1011.1 1011.1 2.2
23/05:30pm 23.6 23.7 19.2 76 2.8 NE 17 26 9 14 1010.9 1010.9 2.2
23/05:00pm 24.0 23.5 19.1 74 3.1 NE 20 26 11 14 1010.8 1010.8 2.2
23/04:30pm 25.0 24.8 19.4 71 3.6 NE 19 26 10 14 1010.4 1010.4 2.2
23/04:00pm 25.1 24.8 19.2 70 3.8 NE 19 26 10 14 1010.3 1010.3 2.2
23/03:30pm 25.5 25.8 19.5 69 3.9 NE 17 24 9 13 1010.4 1010.4 2.2
23/03:00pm 24.6 25.2 20.3 77 2.8 NNE 17 24 9 13 1010.6 1010.6 2.2
23/02:30pm 26.1 26.2 20.3 70 3.8 NNE 20 26 11 14 1010.5 1010.5 2.2
23/02:00pm 24.9 24.5 19.3 71 3.6 NNE 20 30 11 16 1010.6 1010.6 2.2
23/01:30pm 24.6 24.9 19.6 73 3.2 NE 17 24 9 13 1010.9 1010.9 2.2
23/01:00pm 24.9 25.7 20.6 77 2.8 NNE 17 28 9 15 1011.3 1011.3 2.2
23/12:52pm 24.1 27.1 21.2 84 1.9 NNW 7 11 4 6 1011.4 1011.4 2.2
23/12:30pm 22.6 25.1 20.3 87 1.5 NNW 7 28 4 15 1012.0 1012.0 1.4
23/12:28pm 23.0 25.6 20.1 84 1.9 N 6 15 3 8 1011.9 1011.9 0.8
23/12:21pm 23.4 25.1 20.2 82 2.1 NNE 11 19 6 10 1011.8 1011.8 0.6
23/12:00pm 25.1 24.3 18.1 65 4.4 NE 19 28 10 15 1012.1 1012.1 0.0
23/11:30am 25.1 25.8 18.8 68 4.0 NE 13 20 7 11 1012.8 1012.8 0.0
23/11:00am 24.9 26.8 19.8 73 3.3 NNE 9 17 5 9 1013.3 1013.3 0.0
23/10:30am 24.4 24.2 18.4 69 3.8 NE 17 22 9 12 1013.8 1013.8 0.0
23/10:00am 24.0 25.4 18.6 72 3.4 NE 9 15 5 8 1014.0 1014.0 0.0

Other Formats:

Comma delimited format used in spreadsheet applications
http://www.bom.gov.au/fwo/IDQ60801/IDQ60801.94374.axf

JavaScript Object Notation format (JSON) in row-major order
http://www.bom.gov.au/fwo/IDQ60801/IDQ60801.94374.json